Mobile Regional Airport
KMOB : rendu visible

Aérodrome :











RETROUVEZ-NOUS SUR...

 
LOGIN :

S'inscrire | Disclaimer

   EN    FR    IT 

 









Légende :    VFR   VFR Marginal   IFR   IFR Intensif   IFR Très Intensif
Visi : 
Plafond : 
>= 8 km
>= 3000ft
5 à 8 km
1000 à 3000 ft
1500m à 5 km
500 à 1000 ft
800 à 1500m
200 à 500 ft
< 800m
< 200 ft
Symboles :   Orages  Brouillard  Fortes neiges  Fortes précipitations  Vent > 20 kt






- Altitude de l'aérodrome : 219 ft
- Code IATA : MOB


KMOB - Mobile Regional

DERNIER METAR :
  • 040756Z AUTO 17003KT 10SM CLR 21/21 A2992 RMK AO2 SLP129 T02110206

METARs EXPIRÉS :
  • 040656Z AUTO 00000KT 10SM FEW023 21/21 A2995 RMK AO2 SLP140 T02110206
  • 040556Z AUTO 00000KT 10SM CLR 22/21 A2998 RMK AO2 SLP151 60000 T02220211 10261 20217 402890211 58000

TAF KMOB
Valide du 04 à 06h jusqu'au 05 à 06h UTC


040520Z 0406/0506 VRB03KT P6SM FEW050 SCT100 SCT250
FM041000 00000KT 6SM BR FEW025 SCT050 SCT100
FM041400 16008KT P6SM SCT050 SCT100
PROB30 0418/0424 4SM TSRA BKN050CB BKN100
FM050100 19005KT P6SM VCSH FEW050 SCT100
FIR KZHU / Amérique du Nord



MET'MAP, la Météo Aéronautique d'un coup d'oeil ! - Copyright ORBIFLY Décembre 2007 - Disclaimer

ORBIFLY MET'MAP TEAM :

Programmation & Développement : Alexandra Zaïnal
Sur une idée originale de : Baudouin d'Aumeries
Assistance à la programmation : Marc-Olivier Méhu
Soutien technique & logistique : Manuel Goepfert

Contact : metmap@orbifly.com




SOURCES & CREDITS :

   NOAA       Earth
Advisory